sensor_id;sensor_type;location;lat;lon;timestamp;P1;durP1;ratioP1;P2;durP2;ratioP2
21814;SDS011;11069;48.988;8.450;2023-03-21T00:02:01;5.03;;;3.70;;
21814;SDS011;11069;48.988;8.450;2023-03-21T00:04:27;5.45;;;3.85;;
21814;SDS011;11069;48.988;8.450;2023-03-21T00:06:52;6.03;;;3.75;;
21814;SDS011;11069;48.988;8.450;2023-03-21T00:09:18;6.68;;;3.67;;
21814;SDS011;11069;48.988;8.450;2023-03-21T00:11:44;6.07;;;3.55;;
21814;SDS011;11069;48.988;8.450;2023-03-21T00:14:10;4.43;;;3.83;;
21814;SDS011;11069;48.988;8.450;2023-03-21T00:16:38;4.80;;;3.75;;
21814;SDS011;11069;48.988;8.450;2023-03-21T00:19:04;8.68;;;3.70;;
21814;SDS011;11069;48.988;8.450;2023-03-21T00:21:30;4.80;;;3.55;;
21814;SDS011;11069;48.988;8.450;2023-03-21T00:23:58;6.72;;;3.90;;
21814;SDS011;11069;48.988;8.450;2023-03-21T00:26:24;6.15;;;4.03;;
21814;SDS011;11069;48.988;8.450;2023-03-21T00:28:50;6.90;;;3.80;;
21814;SDS011;11069;48.988;8.450;2023-03-21T00:31:16;6.38;;;3.88;;
21814;SDS011;11069;48.988;8.450;2023-03-21T00:33:42;6.28;;;3.85;;
21814;SDS011;11069;48.988;8.450;2023-03-21T00:36:09;5.05;;;4.05;;
21814;SDS011;11069;48.988;8.450;2023-03-21T00:38:35;5.45;;;3.60;;
21814;SDS011;11069;48.988;8.450;2023-03-21T00:41:05;4.93;;;3.50;;
21814;SDS011;11069;48.988;8.450;2023-03-21T00:43:32;5.55;;;3.55;;
21814;SDS011;11069;48.988;8.450;2023-03-21T00:45:58;5.15;;;3.65;;
21814;SDS011;11069;48.988;8.450;2023-03-21T00:48:24;6.65;;;4.13;;
21814;SDS011;11069;48.988;8.450;2023-03-21T00:50:51;7.20;;;3.90;;
21814;SDS011;11069;48.988;8.450;2023-03-21T00:53:18;5.28;;;3.70;;
21814;SDS011;11069;48.988;8.450;2023-03-21T00:55:44;5.40;;;3.75;;
21814;SDS011;11069;48.988;8.450;2023-03-21T00:58:09;7.68;;;4.00;;
21814;SDS011;11069;48.988;8.450;2023-03-21T01:00:35;5.53;;;4.10;;
21814;SDS011;11069;48.988;8.450;2023-03-21T01:03:02;4.22;;;3.83;;
21814;SDS011;11069;48.988;8.450;2023-03-21T01:05:29;6.32;;;3.88;;
21814;SDS011;11069;48.988;8.450;2023-03-21T01:08:16;5.55;;;3.80;;
21814;SDS011;11069;48.988;8.450;2023-03-21T01:10:44;5.57;;;4.28;;
21814;SDS011;11069;48.988;8.450;2023-03-21T01:13:12;9.23;;;4.05;;
21814;SDS011;11069;48.988;8.450;2023-03-21T01:15:45;8.23;;;4.22;;
21814;SDS011;11069;48.988;8.450;2023-03-21T01:18:14;5.82;;;3.90;;
21814;SDS011;11069;48.988;8.450;2023-03-21T01:20:41;7.13;;;4.18;;
21814;SDS011;11069;48.988;8.450;2023-03-21T01:23:08;7.30;;;4.40;;
21814;SDS011;11069;48.988;8.450;2023-03-21T01:25:34;4.88;;;4.00;;
21814;SDS011;11069;48.988;8.450;2023-03-21T01:28:00;5.82;;;4.32;;
21814;SDS011;11069;48.988;8.450;2023-03-21T01:30:26;9.65;;;5.13;;
21814;SDS011;11069;48.988;8.450;2023-03-21T01:32:51;7.22;;;4.25;;
21814;SDS011;11069;48.988;8.450;2023-03-21T01:35:17;6.28;;;4.40;;
21814;SDS011;11069;48.988;8.450;2023-03-21T01:37:43;5.63;;;3.85;;
21814;SDS011;11069;48.988;8.450;2023-03-21T01:40:15;6.63;;;4.63;;
21814;SDS011;11069;48.988;8.450;2023-03-21T01:42:43;5.07;;;4.25;;
21814;SDS011;11069;48.988;8.450;2023-03-21T01:48:12;5.63;;;4.50;;
21814;SDS011;11069;48.988;8.450;2023-03-21T01:50:39;6.43;;;4.60;;
21814;SDS011;11069;48.988;8.450;2023-03-21T01:53:06;6.05;;;4.28;;
21814;SDS011;11069;48.988;8.450;2023-03-21T01:55:31;9.38;;;4.35;;
21814;SDS011;11069;48.988;8.450;2023-03-21T01:57:58;8.65;;;4.88;;
21814;SDS011;11069;48.988;8.450;2023-03-21T02:00:25;6.35;;;4.85;;
21814;SDS011;11069;48.988;8.450;2023-03-21T02:02:53;5.93;;;4.50;;
21814;SDS011;11069;48.988;8.450;2023-03-21T02:05:35;7.53;;;5.28;;
21814;SDS011;11069;48.988;8.450;2023-03-21T02:08:01;6.15;;;4.65;;
21814;SDS011;11069;48.988;8.450;2023-03-21T02:10:27;6.93;;;4.70;;
21814;SDS011;11069;48.988;8.450;2023-03-21T02:12:55;8.10;;;4.78;;
21814;SDS011;11069;48.988;8.450;2023-03-21T02:15:32;8.38;;;5.10;;
21814;SDS011;11069;48.988;8.450;2023-03-21T02:18:02;6.63;;;4.45;;
21814;SDS011;11069;48.988;8.450;2023-03-21T02:26:33;6.30;;;4.45;;
21814;SDS011;11069;48.988;8.450;2023-03-21T02:32:25;6.18;;;4.40;;
21814;SDS011;11069;48.988;8.450;2023-03-21T02:37:45;7.05;;;4.18;;
21814;SDS011;11069;48.988;8.450;2023-03-21T02:40:21;6.30;;;4.70;;
21814;SDS011;11069;48.988;8.450;2023-03-21T02:42:53;5.13;;;4.22;;
21814;SDS011;11069;48.988;8.450;2023-03-21T02:45:23;5.95;;;4.10;;
21814;SDS011;11069;48.988;8.450;2023-03-21T02:47:58;9.32;;;4.40;;
21814;SDS011;11069;48.988;8.450;2023-03-21T02:50:52;7.88;;;4.78;;
21814;SDS011;11069;48.988;8.450;2023-03-21T02:53:19;7.53;;;4.45;;
21814;SDS011;11069;48.988;8.450;2023-03-21T02:55:49;5.65;;;4.47;;
21814;SDS011;11069;48.988;8.450;2023-03-21T02:58:18;5.65;;;4.22;;
21814;SDS011;11069;48.988;8.450;2023-03-21T03:00:45;6.25;;;4.10;;
21814;SDS011;11069;48.988;8.450;2023-03-21T03:03:13;7.47;;;5.13;;
21814;SDS011;11069;48.988;8.450;2023-03-21T03:05:49;7.15;;;4.50;;
21814;SDS011;11069;48.988;8.450;2023-03-21T03:26:32;6.70;;;5.07;;
21814;SDS011;11069;48.988;8.450;2023-03-21T03:29:07;5.97;;;4.70;;
21814;SDS011;11069;48.988;8.450;2023-03-21T03:31:44;7.95;;;5.65;;
21814;SDS011;11069;48.988;8.450;2023-03-21T03:34:24;7.75;;;5.05;;
21814;SDS011;11069;48.988;8.450;2023-03-21T03:36:58;6.88;;;5.20;;
21814;SDS011;11069;48.988;8.450;2023-03-21T03:40:03;6.82;;;5.00;;
21814;SDS011;11069;48.988;8.450;2023-03-21T03:42:37;5.50;;;5.00;;
21814;SDS011;11069;48.988;8.450;2023-03-21T03:45:07;8.63;;;5.88;;
21814;SDS011;11069;48.988;8.450;2023-03-21T03:47:40;6.88;;;4.93;;
21814;SDS011;11069;48.988;8.450;2023-03-21T03:50:23;5.72;;;4.97;;
21814;SDS011;11069;48.988;8.450;2023-03-21T03:52:52;7.55;;;5.43;;
21814;SDS011;11069;48.988;8.450;2023-03-21T03:55:21;7.20;;;5.45;;
21814;SDS011;11069;48.988;8.450;2023-03-21T03:57:50;5.57;;;4.88;;
21814;SDS011;11069;48.988;8.450;2023-03-21T04:00:17;5.80;;;5.20;;
21814;SDS011;11069;48.988;8.450;2023-03-21T04:02:43;6.65;;;5.70;;
21814;SDS011;11069;48.988;8.450;2023-03-21T04:05:10;6.40;;;5.32;;
21814;SDS011;11069;48.988;8.450;2023-03-21T04:07:36;7.05;;;5.40;;
21814;SDS011;11069;48.988;8.450;2023-03-21T04:10:02;9.00;;;5.63;;
21814;SDS011;11069;48.988;8.450;2023-03-21T04:12:29;8.48;;;5.65;;
21814;SDS011;11069;48.988;8.450;2023-03-21T04:14:54;9.50;;;6.18;;
21814;SDS011;11069;48.988;8.450;2023-03-21T04:17:20;9.25;;;5.75;;
21814;SDS011;11069;48.988;8.450;2023-03-21T04:19:46;9.32;;;6.00;;
21814;SDS011;11069;48.988;8.450;2023-03-21T04:22:12;7.53;;;5.63;;
21814;SDS011;11069;48.988;8.450;2023-03-21T04:24:38;7.72;;;5.38;;
21814;SDS011;11069;48.988;8.450;2023-03-21T04:27:04;6.72;;;5.50;;
21814;SDS011;11069;48.988;8.450;2023-03-21T04:29:30;6.15;;;5.38;;
21814;SDS011;11069;48.988;8.450;2023-03-21T04:31:56;8.25;;;5.53;;
21814;SDS011;11069;48.988;8.450;2023-03-21T04:34:22;8.18;;;6.10;;
21814;SDS011;11069;48.988;8.450;2023-03-21T04:36:52;6.93;;;6.00;;
21814;SDS011;11069;48.988;8.450;2023-03-21T04:39:18;9.73;;;5.55;;
21814;SDS011;11069;48.988;8.450;2023-03-21T04:41:45;8.23;;;5.93;;
21814;SDS011;11069;48.988;8.450;2023-03-21T04:44:12;11.00;;;6.22;;
21814;SDS011;11069;48.988;8.450;2023-03-21T04:46:39;8.43;;;6.22;;
21814;SDS011;11069;48.988;8.450;2023-03-21T04:49:05;10.52;;;6.00;;
21814;SDS011;11069;48.988;8.450;2023-03-21T04:51:32;8.85;;;6.07;;
21814;SDS011;11069;48.988;8.450;2023-03-21T04:54:01;8.40;;;5.80;;
21814;SDS011;11069;48.988;8.450;2023-03-21T04:56:27;9.65;;;6.22;;
21814;SDS011;11069;48.988;8.450;2023-03-21T04:58:58;9.02;;;6.18;;
21814;SDS011;11069;48.988;8.450;2023-03-21T05:01:24;8.45;;;5.93;;
21814;SDS011;11069;48.988;8.450;2023-03-21T05:03:55;7.32;;;5.32;;
21814;SDS011;11069;48.988;8.450;2023-03-21T05:06:24;6.85;;;5.65;;
21814;SDS011;11069;48.988;8.450;2023-03-21T05:08:51;6.55;;;5.57;;
21814;SDS011;11069;48.988;8.450;2023-03-21T05:11:18;6.68;;;5.50;;
21814;SDS011;11069;48.988;8.450;2023-03-21T05:13:44;7.85;;;5.22;;
21814;SDS011;11069;48.988;8.450;2023-03-21T05:16:10;11.13;;;5.30;;
21814;SDS011;11069;48.988;8.450;2023-03-21T05:18:35;8.70;;;5.40;;
21814;SDS011;11069;48.988;8.450;2023-03-21T05:21:02;8.00;;;5.65;;
21814;SDS011;11069;48.988;8.450;2023-03-21T05:23:31;9.40;;;5.85;;
21814;SDS011;11069;48.988;8.450;2023-03-21T05:26:02;8.18;;;4.88;;
21814;SDS011;11069;48.988;8.450;2023-03-21T05:28:32;8.13;;;5.57;;
21814;SDS011;11069;48.988;8.450;2023-03-21T05:31:00;8.63;;;5.57;;
21814;SDS011;11069;48.988;8.450;2023-03-21T05:33:26;6.72;;;5.53;;
21814;SDS011;11069;48.988;8.450;2023-03-21T05:35:51;6.72;;;5.03;;
21814;SDS011;11069;48.988;8.450;2023-03-21T05:38:17;5.72;;;5.13;;
21814;SDS011;11069;48.988;8.450;2023-03-21T05:40:46;7.22;;;4.72;;
21814;SDS011;11069;48.988;8.450;2023-03-21T05:43:12;8.02;;;5.38;;
21814;SDS011;11069;48.988;8.450;2023-03-21T05:45:38;6.28;;;5.68;;
21814;SDS011;11069;48.988;8.450;2023-03-21T05:48:03;6.70;;;5.65;;
21814;SDS011;11069;48.988;8.450;2023-03-21T05:50:29;6.75;;;5.35;;
21814;SDS011;11069;48.988;8.450;2023-03-21T05:52:55;9.77;;;6.35;;
21814;SDS011;11069;48.988;8.450;2023-03-21T05:55:20;6.55;;;5.80;;
21814;SDS011;11069;48.988;8.450;2023-03-21T05:57:46;8.55;;;6.25;;
21814;SDS011;11069;48.988;8.450;2023-03-21T06:00:12;7.32;;;6.38;;
21814;SDS011;11069;48.988;8.450;2023-03-21T06:02:39;12.25;;;6.88;;
21814;SDS011;11069;48.988;8.450;2023-03-21T06:05:06;11.55;;;7.72;;
21814;SDS011;11069;48.988;8.450;2023-03-21T06:07:32;9.82;;;6.43;;
21814;SDS011;11069;48.988;8.450;2023-03-21T06:09:58;9.15;;;6.40;;
21814;SDS011;11069;48.988;8.450;2023-03-21T06:12:23;8.77;;;6.57;;
21814;SDS011;11069;48.988;8.450;2023-03-21T06:14:49;10.52;;;6.22;;
21814;SDS011;11069;48.988;8.450;2023-03-21T06:17:14;7.55;;;5.40;;
21814;SDS011;11069;48.988;8.450;2023-03-21T06:19:40;8.60;;;5.78;;
21814;SDS011;11069;48.988;8.450;2023-03-21T06:22:06;7.47;;;4.97;;
21814;SDS011;11069;48.988;8.450;2023-03-21T06:24:31;6.93;;;5.45;;
21814;SDS011;11069;48.988;8.450;2023-03-21T06:26:57;7.35;;;4.97;;
21814;SDS011;11069;48.988;8.450;2023-03-21T06:29:23;6.20;;;4.82;;
21814;SDS011;11069;48.988;8.450;2023-03-21T06:31:48;7.75;;;4.68;;
21814;SDS011;11069;48.988;8.450;2023-03-21T06:34:14;7.03;;;4.53;;
21814;SDS011;11069;48.988;8.450;2023-03-21T06:36:40;7.20;;;4.47;;
21814;SDS011;11069;48.988;8.450;2023-03-21T06:39:08;5.43;;;4.57;;
21814;SDS011;11069;48.988;8.450;2023-03-21T06:41:34;5.65;;;4.28;;
21814;SDS011;11069;48.988;8.450;2023-03-21T06:44:00;5.32;;;3.70;;
21814;SDS011;11069;48.988;8.450;2023-03-21T06:46:26;4.85;;;3.78;;
21814;SDS011;11069;48.988;8.450;2023-03-21T06:48:51;5.40;;;4.05;;
21814;SDS011;11069;48.988;8.450;2023-03-21T06:51:17;4.95;;;3.60;;
21814;SDS011;11069;48.988;8.450;2023-03-21T06:53:42;4.05;;;2.80;;
21814;SDS011;11069;48.988;8.450;2023-03-21T06:56:08;4.18;;;3.13;;
21814;SDS011;11069;48.988;8.450;2023-03-21T06:58:35;6.57;;;3.75;;
21814;SDS011;11069;48.988;8.450;2023-03-21T07:01:01;3.33;;;3.03;;
21814;SDS011;11069;48.988;8.450;2023-03-21T07:03:28;3.67;;;2.95;;
21814;SDS011;11069;48.988;8.450;2023-03-21T07:05:53;5.28;;;3.30;;
21814;SDS011;11069;48.988;8.450;2023-03-21T07:08:20;3.65;;;2.95;;
21814;SDS011;11069;48.988;8.450;2023-03-21T07:10:46;5.55;;;3.58;;
21814;SDS011;11069;48.988;8.450;2023-03-21T07:13:11;8.27;;;3.30;;
21814;SDS011;11069;48.988;8.450;2023-03-21T07:15:38;4.43;;;3.50;;
21814;SDS011;11069;48.988;8.450;2023-03-21T07:18:05;4.60;;;2.80;;
21814;SDS011;11069;48.988;8.450;2023-03-21T07:20:33;4.07;;;2.70;;
21814;SDS011;11069;48.988;8.450;2023-03-21T07:22:59;4.90;;;3.17;;
21814;SDS011;11069;48.988;8.450;2023-03-21T07:25:25;3.45;;;3.08;;
21814;SDS011;11069;48.988;8.450;2023-03-21T07:27:51;3.25;;;2.60;;
21814;SDS011;11069;48.988;8.450;2023-03-21T07:30:16;4.57;;;3.28;;
21814;SDS011;11069;48.988;8.450;2023-03-21T07:32:43;7.90;;;3.10;;
21814;SDS011;11069;48.988;8.450;2023-03-21T07:35:10;3.92;;;3.10;;
21814;SDS011;11069;48.988;8.450;2023-03-21T07:37:38;6.28;;;3.10;;
21814;SDS011;11069;48.988;8.450;2023-03-21T07:40:04;3.63;;;3.20;;
21814;SDS011;11069;48.988;8.450;2023-03-21T07:42:37;3.47;;;2.97;;
21814;SDS011;11069;48.988;8.450;2023-03-21T07:45:03;4.07;;;3.28;;
21814;SDS011;11069;48.988;8.450;2023-03-21T07:47:29;4.85;;;2.88;;
21814;SDS011;11069;48.988;8.450;2023-03-21T07:49:55;3.42;;;2.60;;
21814;SDS011;11069;48.988;8.450;2023-03-21T07:52:21;4.30;;;2.92;;
21814;SDS011;11069;48.988;8.450;2023-03-21T07:54:47;4.50;;;2.90;;
21814;SDS011;11069;48.988;8.450;2023-03-21T07:57:12;4.05;;;2.63;;
21814;SDS011;11069;48.988;8.450;2023-03-21T07:59:38;4.28;;;2.70;;
21814;SDS011;11069;48.988;8.450;2023-03-21T08:02:03;4.25;;;3.13;;
21814;SDS011;11069;48.988;8.450;2023-03-21T08:04:29;4.80;;;2.60;;
21814;SDS011;11069;48.988;8.450;2023-03-21T08:06:54;3.47;;;2.67;;
21814;SDS011;11069;48.988;8.450;2023-03-21T08:09:21;2.75;;;2.33;;
21814;SDS011;11069;48.988;8.450;2023-03-21T08:11:47;3.40;;;2.42;;
21814;SDS011;11069;48.988;8.450;2023-03-21T08:14:12;3.85;;;2.35;;
21814;SDS011;11069;48.988;8.450;2023-03-21T08:16:38;2.83;;;2.15;;
21814;SDS011;11069;48.988;8.450;2023-03-21T08:19:03;4.97;;;2.00;;
21814;SDS011;11069;48.988;8.450;2023-03-21T08:21:29;5.95;;;2.15;;
21814;SDS011;11069;48.988;8.450;2023-03-21T08:23:54;2.80;;;2.00;;
21814;SDS011;11069;48.988;8.450;2023-03-21T08:26:20;5.28;;;2.00;;
21814;SDS011;11069;48.988;8.450;2023-03-21T08:28:49;4.55;;;2.20;;
21814;SDS011;11069;48.988;8.450;2023-03-21T08:31:15;4.80;;;2.15;;
21814;SDS011;11069;48.988;8.450;2023-03-21T08:33:41;3.78;;;2.28;;
21814;SDS011;11069;48.988;8.450;2023-03-21T08:36:07;3.45;;;2.72;;
21814;SDS011;11069;48.988;8.450;2023-03-21T08:38:33;6.00;;;2.38;;
21814;SDS011;11069;48.988;8.450;2023-03-21T08:40:59;3.97;;;2.60;;
21814;SDS011;11069;48.988;8.450;2023-03-21T08:43:26;5.40;;;2.58;;
21814;SDS011;11069;48.988;8.450;2023-03-21T08:45:52;2.75;;;2.40;;
21814;SDS011;11069;48.988;8.450;2023-03-21T08:48:18;4.60;;;2.40;;
21814;SDS011;11069;48.988;8.450;2023-03-21T08:50:44;4.53;;;2.55;;
21814;SDS011;11069;48.988;8.450;2023-03-21T08:53:10;8.48;;;2.45;;
21814;SDS011;11069;48.988;8.450;2023-03-21T08:55:35;2.75;;;2.22;;
21814;SDS011;11069;48.988;8.450;2023-03-21T08:58:01;2.67;;;2.10;;
21814;SDS011;11069;48.988;8.450;2023-03-21T09:00:27;5.70;;;2.67;;
21814;SDS011;11069;48.988;8.450;2023-03-21T09:02:53;4.38;;;2.28;;
21814;SDS011;11069;48.988;8.450;2023-03-21T09:05:20;4.15;;;2.78;;
21814;SDS011;11069;48.988;8.450;2023-03-21T09:07:46;5.70;;;2.35;;
21814;SDS011;11069;48.988;8.450;2023-03-21T09:10:16;4.88;;;2.10;;
21814;SDS011;11069;48.988;8.450;2023-03-21T09:12:43;4.30;;;2.25;;
21814;SDS011;11069;48.988;8.450;2023-03-21T09:15:09;3.00;;;2.42;;
21814;SDS011;11069;48.988;8.450;2023-03-21T09:17:36;4.63;;;2.33;;
21814;SDS011;11069;48.988;8.450;2023-03-21T09:20:14;5.10;;;2.17;;
21814;SDS011;11069;48.988;8.450;2023-03-21T09:22:47;5.95;;;2.20;;
21814;SDS011;11069;48.988;8.450;2023-03-21T09:25:14;2.92;;;2.20;;
21814;SDS011;11069;48.988;8.450;2023-03-21T09:27:40;4.68;;;2.60;;
21814;SDS011;11069;48.988;8.450;2023-03-21T09:30:13;3.70;;;2.80;;
21814;SDS011;11069;48.988;8.450;2023-03-21T09:32:43;6.82;;;3.17;;
21814;SDS011;11069;48.988;8.450;2023-03-21T09:35:12;3.92;;;2.80;;
21814;SDS011;11069;48.988;8.450;2023-03-21T09:37:40;3.75;;;3.00;;
21814;SDS011;11069;48.988;8.450;2023-03-21T09:40:14;5.20;;;2.90;;
21814;SDS011;11069;48.988;8.450;2023-03-21T09:48:03;2.72;;;2.30;;
21814;SDS011;11069;48.988;8.450;2023-03-21T09:50:34;3.72;;;2.60;;
21814;SDS011;11069;48.988;8.450;2023-03-21T09:53:04;3.28;;;2.22;;
21814;SDS011;11069;48.988;8.450;2023-03-21T09:55:37;5.65;;;2.97;;
21814;SDS011;11069;48.988;8.450;2023-03-21T10:01:12;4.35;;;3.08;;
21814;SDS011;11069;48.988;8.450;2023-03-21T10:03:51;4.50;;;2.78;;
21814;SDS011;11069;48.988;8.450;2023-03-21T10:06:18;5.88;;;2.72;;
21814;SDS011;11069;48.988;8.450;2023-03-21T10:08:51;4.65;;;2.97;;
21814;SDS011;11069;48.988;8.450;2023-03-21T10:11:23;5.10;;;3.28;;
21814;SDS011;11069;48.988;8.450;2023-03-21T10:13:53;7.93;;;3.20;;
21814;SDS011;11069;48.988;8.450;2023-03-21T10:16:35;4.90;;;2.90;;
21814;SDS011;11069;48.988;8.450;2023-03-21T10:19:12;3.70;;;3.38;;
21814;SDS011;11069;48.988;8.450;2023-03-21T10:21:40;4.28;;;2.85;;
21814;SDS011;11069;48.988;8.450;2023-03-21T10:24:09;5.00;;;2.90;;
21814;SDS011;11069;48.988;8.450;2023-03-21T10:26:41;3.55;;;2.83;;
21814;SDS011;11069;48.988;8.450;2023-03-21T10:29:09;4.25;;;2.80;;
21814;SDS011;11069;48.988;8.450;2023-03-21T10:31:38;4.13;;;2.90;;
21814;SDS011;11069;48.988;8.450;2023-03-21T10:34:08;5.40;;;2.60;;
21814;SDS011;11069;48.988;8.450;2023-03-21T10:36:57;7.32;;;3.10;;
21814;SDS011;11069;48.988;8.450;2023-03-21T10:39:26;6.10;;;2.70;;
21814;SDS011;11069;48.988;8.450;2023-03-21T10:41:58;3.72;;;2.90;;
21814;SDS011;11069;48.988;8.450;2023-03-21T10:44:27;3.72;;;2.85;;
21814;SDS011;11069;48.988;8.450;2023-03-21T10:46:56;3.45;;;2.95;;
21814;SDS011;11069;48.988;8.450;2023-03-21T10:49:32;4.15;;;2.85;;
21814;SDS011;11069;48.988;8.450;2023-03-21T10:52:00;3.03;;;2.60;;
21814;SDS011;11069;48.988;8.450;2023-03-21T10:54:29;2.13;;;1.92;;
21814;SDS011;11069;48.988;8.450;2023-03-21T10:56:56;5.18;;;2.80;;
21814;SDS011;11069;48.988;8.450;2023-03-21T10:59:35;7.53;;;3.00;;
21814;SDS011;11069;48.988;8.450;2023-03-21T11:02:06;4.43;;;2.90;;
21814;SDS011;11069;48.988;8.450;2023-03-21T11:04:41;3.85;;;2.80;;
21814;SDS011;11069;48.988;8.450;2023-03-21T11:07:10;4.00;;;2.70;;
21814;SDS011;11069;48.988;8.450;2023-03-21T11:09:43;4.43;;;2.77;;
21814;SDS011;11069;48.988;8.450;2023-03-21T11:12:38;3.90;;;2.83;;
21814;SDS011;11069;48.988;8.450;2023-03-21T11:15:15;3.17;;;2.80;;
21814;SDS011;11069;48.988;8.450;2023-03-21T11:17:48;6.00;;;2.83;;
21814;SDS011;11069;48.988;8.450;2023-03-21T11:20:16;3.72;;;2.85;;
21814;SDS011;11069;48.988;8.450;2023-03-21T11:22:43;3.85;;;3.22;;
21814;SDS011;11069;48.988;8.450;2023-03-21T11:25:20;5.47;;;3.28;;
21814;SDS011;11069;48.988;8.450;2023-03-21T11:27:54;4.50;;;3.10;;
21814;SDS011;11069;48.988;8.450;2023-03-21T11:30:21;3.85;;;2.60;;
21814;SDS011;11069;48.988;8.450;2023-03-21T11:32:53;4.28;;;3.00;;
21814;SDS011;11069;48.988;8.450;2023-03-21T11:35:22;4.13;;;2.78;;
21814;SDS011;11069;48.988;8.450;2023-03-21T11:37:51;3.90;;;2.70;;
21814;SDS011;11069;48.988;8.450;2023-03-21T11:42:58;5.50;;;3.00;;
21814;SDS011;11069;48.988;8.450;2023-03-21T11:48:28;6.00;;;2.72;;
21814;SDS011;11069;48.988;8.450;2023-03-21T11:51:03;5.05;;;2.58;;
21814;SDS011;11069;48.988;8.450;2023-03-21T11:53:50;5.45;;;2.70;;
21814;SDS011;11069;48.988;8.450;2023-03-21T12:04:40;4.88;;;2.83;;
21814;SDS011;11069;48.988;8.450;2023-03-21T12:12:47;4.97;;;2.88;;
21814;SDS011;11069;48.988;8.450;2023-03-21T12:24:10;5.70;;;2.40;;
21814;SDS011;11069;48.988;8.450;2023-03-21T12:26:50;5.15;;;2.33;;
21814;SDS011;11069;48.988;8.450;2023-03-21T12:43:16;3.85;;;2.00;;
21814;SDS011;11069;48.988;8.450;2023-03-21T12:46:00;3.35;;;2.00;;
21814;SDS011;11069;48.988;8.450;2023-03-21T12:48:43;2.70;;;1.98;;
21814;SDS011;11069;48.988;8.450;2023-03-21T12:51:23;1.75;;;1.65;;
21814;SDS011;11069;48.988;8.450;2023-03-21T12:56:28;2.75;;;2.10;;
21814;SDS011;11069;48.988;8.450;2023-03-21T12:59:53;2.42;;;1.95;;
21814;SDS011;11069;48.988;8.450;2023-03-21T13:07:53;2.33;;;1.90;;
21814;SDS011;11069;48.988;8.450;2023-03-21T13:10:22;2.83;;;1.95;;
21814;SDS011;11069;48.988;8.450;2023-03-21T13:20:45;1.52;;;1.38;;
21814;SDS011;11069;48.988;8.450;2023-03-21T13:23:12;2.42;;;1.33;;
21814;SDS011;11069;48.988;8.450;2023-03-21T13:25:40;2.30;;;1.33;;
21814;SDS011;11069;48.988;8.450;2023-03-21T13:28:30;1.80;;;1.40;;
21814;SDS011;11069;48.988;8.450;2023-03-21T13:33:49;2.90;;;1.60;;
21814;SDS011;11069;48.988;8.450;2023-03-21T13:36:24;2.47;;;1.50;;
21814;SDS011;11069;48.988;8.450;2023-03-21T13:38:53;1.95;;;1.27;;
21814;SDS011;11069;48.988;8.450;2023-03-21T13:41:31;2.45;;;1.58;;
21814;SDS011;11069;48.988;8.450;2023-03-21T13:48:58;1.40;;;1.27;;
21814;SDS011;11069;48.988;8.450;2023-03-21T13:56:48;3.65;;;1.58;;
21814;SDS011;11069;48.988;8.450;2023-03-21T14:04:42;1.92;;;1.73;;
21814;SDS011;11069;48.988;8.450;2023-03-21T14:07:12;2.67;;;1.80;;
21814;SDS011;11069;48.988;8.450;2023-03-21T14:09:51;2.78;;;1.67;;
21814;SDS011;11069;48.988;8.450;2023-03-21T14:12:24;2.78;;;1.60;;
21814;SDS011;11069;48.988;8.450;2023-03-21T14:14:57;4.00;;;2.10;;
21814;SDS011;11069;48.988;8.450;2023-03-21T14:17:23;3.20;;;1.65;;
21814;SDS011;11069;48.988;8.450;2023-03-21T14:19:54;3.92;;;2.20;;
21814;SDS011;11069;48.988;8.450;2023-03-21T14:22:25;2.47;;;1.90;;
21814;SDS011;11069;48.988;8.450;2023-03-21T14:24:56;2.10;;;1.90;;
21814;SDS011;11069;48.988;8.450;2023-03-21T14:27:23;4.40;;;1.90;;
21814;SDS011;11069;48.988;8.450;2023-03-21T14:29:53;2.17;;;1.60;;
21814;SDS011;11069;48.988;8.450;2023-03-21T14:32:21;2.22;;;1.80;;
21814;SDS011;11069;48.988;8.450;2023-03-21T14:34:49;3.33;;;1.90;;
21814;SDS011;11069;48.988;8.450;2023-03-21T14:40:02;2.22;;;1.80;;
21814;SDS011;11069;48.988;8.450;2023-03-21T14:42:34;4.38;;;1.80;;
21814;SDS011;11069;48.988;8.450;2023-03-21T14:45:10;1.90;;;1.70;;
21814;SDS011;11069;48.988;8.450;2023-03-21T14:47:53;11.65;;;2.10;;
21814;SDS011;11069;48.988;8.450;2023-03-21T14:53:20;4.22;;;1.80;;
21814;SDS011;11069;48.988;8.450;2023-03-21T14:58:30;2.83;;;1.75;;
21814;SDS011;11069;48.988;8.450;2023-03-21T15:01:00;3.42;;;1.80;;
21814;SDS011;11069;48.988;8.450;2023-03-21T15:03:28;3.38;;;1.67;;
21814;SDS011;11069;48.988;8.450;2023-03-21T15:05:55;2.22;;;1.40;;
21814;SDS011;11069;48.988;8.450;2023-03-21T15:08:22;3.13;;;1.70;;
21814;SDS011;11069;48.988;8.450;2023-03-21T15:10:57;2.55;;;1.63;;
21814;SDS011;11069;48.988;8.450;2023-03-21T15:13:26;2.85;;;1.50;;
21814;SDS011;11069;48.988;8.450;2023-03-21T15:15:54;3.22;;;1.50;;
21814;SDS011;11069;48.988;8.450;2023-03-21T15:18:30;2.75;;;1.50;;
21814;SDS011;11069;48.988;8.450;2023-03-21T15:21:00;1.58;;;1.23;;
21814;SDS011;11069;48.988;8.450;2023-03-21T15:26:03;2.80;;;1.50;;
21814;SDS011;11069;48.988;8.450;2023-03-21T15:28:31;1.45;;;1.20;;
21814;SDS011;11069;48.988;8.450;2023-03-21T15:30:58;1.98;;;1.30;;
21814;SDS011;11069;48.988;8.450;2023-03-21T15:33:25;3.55;;;1.83;;
21814;SDS011;11069;48.988;8.450;2023-03-21T15:35:54;5.38;;;1.60;;
21814;SDS011;11069;48.988;8.450;2023-03-21T15:38:24;2.30;;;1.40;;
21814;SDS011;11069;48.988;8.450;2023-03-21T15:41:11;3.78;;;1.40;;
21814;SDS011;11069;48.988;8.450;2023-03-21T15:43:40;2.40;;;1.40;;
21814;SDS011;11069;48.988;8.450;2023-03-21T15:46:13;2.60;;;1.63;;
21814;SDS011;11069;48.988;8.450;2023-03-21T15:48:41;2.22;;;1.40;;
21814;SDS011;11069;48.988;8.450;2023-03-21T15:51:10;5.93;;;1.67;;
21814;SDS011;11069;48.988;8.450;2023-03-21T15:53:47;2.22;;;1.42;;
21814;SDS011;11069;48.988;8.450;2023-03-21T15:56:17;2.50;;;1.65;;
21814;SDS011;11069;48.988;8.450;2023-03-21T15:58:46;2.40;;;1.38;;
21814;SDS011;11069;48.988;8.450;2023-03-21T16:03:42;3.50;;;1.55;;
21814;SDS011;11069;48.988;8.450;2023-03-21T16:08:46;3.17;;;1.60;;
21814;SDS011;11069;48.988;8.450;2023-03-21T16:11:22;3.80;;;1.92;;
21814;SDS011;11069;48.988;8.450;2023-03-21T16:13:51;3.35;;;1.50;;
21814;SDS011;11069;48.988;8.450;2023-03-21T16:16:23;4.07;;;1.48;;
21814;SDS011;11069;48.988;8.450;2023-03-21T16:18:51;3.03;;;1.90;;
21814;SDS011;11069;48.988;8.450;2023-03-21T16:21:18;2.15;;;1.52;;
21814;SDS011;11069;48.988;8.450;2023-03-21T16:23:46;1.90;;;1.50;;
21814;SDS011;11069;48.988;8.450;2023-03-21T16:26:15;2.30;;;1.60;;
21814;SDS011;11069;48.988;8.450;2023-03-21T16:28:43;2.47;;;1.73;;
21814;SDS011;11069;48.988;8.450;2023-03-21T16:31:13;2.55;;;1.52;;
21814;SDS011;11069;48.988;8.450;2023-03-21T16:33:41;2.30;;;1.73;;
21814;SDS011;11069;48.988;8.450;2023-03-21T16:36:11;3.17;;;1.67;;
21814;SDS011;11069;48.988;8.450;2023-03-21T16:38:44;3.38;;;1.92;;
21814;SDS011;11069;48.988;8.450;2023-03-21T16:41:13;3.95;;;2.03;;
21814;SDS011;11069;48.988;8.450;2023-03-21T16:43:40;2.88;;;2.20;;
21814;SDS011;11069;48.988;8.450;2023-03-21T16:46:20;2.45;;;1.92;;
21814;SDS011;11069;48.988;8.450;2023-03-21T16:48:48;4.05;;;2.35;;
21814;SDS011;11069;48.988;8.450;2023-03-21T16:51:25;6.43;;;2.45;;
21814;SDS011;11069;48.988;8.450;2023-03-21T16:53:58;2.88;;;1.98;;
21814;SDS011;11069;48.988;8.450;2023-03-21T16:56:28;3.35;;;1.80;;
21814;SDS011;11069;48.988;8.450;2023-03-21T16:59:00;6.03;;;2.08;;
21814;SDS011;11069;48.988;8.450;2023-03-21T17:01:25;2.83;;;2.30;;
21814;SDS011;11069;48.988;8.450;2023-03-21T17:03:51;3.72;;;2.30;;
21814;SDS011;11069;48.988;8.450;2023-03-21T17:06:18;6.75;;;2.53;;
21814;SDS011;11069;48.988;8.450;2023-03-21T17:08:46;3.05;;;2.08;;
21814;SDS011;11069;48.988;8.450;2023-03-21T17:11:13;4.38;;;2.83;;
21814;SDS011;11069;48.988;8.450;2023-03-21T17:13:41;3.80;;;2.53;;
21814;SDS011;11069;48.988;8.450;2023-03-21T17:16:14;5.03;;;2.60;;